Time,TemperatureC,DewpointC,PressurehPa,WindDirection,WindDirectionDegrees,WindSpeedKMH,WindSpeedGustKMH,Humidity,HourlyPrecipMM,Conditions,Clouds,dailyrainMM,SolarRadiationWatts/m^2,UVIndex,SoftwareType,DateUTC
2020-02-20 00:03:07,-1.8,0.3,1020.1,East,90,0,0,79.1,0.0,,,0.0,0,0,n/a,2020-02-19T23:03:07Z
2020-02-20 00:09:08,-1.9,0.3,1019.8,ESE,112,0,0,79.5,0.0,,,0.0,2,0,n/a,2020-02-19T23:09:08Z
2020-02-20 00:12:07,-2,0.3,1019.8,ESE,112,0,0,79.3,0.0,,,0.0,2,0,n/a,2020-02-19T23:12:07Z
2020-02-20 00:18:07,-2,0.2,1019.8,ESE,112,0,0,79.2,0.0,,,0.0,2,0,n/a,2020-02-19T23:18:07Z
2020-02-20 00:24:08,-2.1,0.2,1020.1,ESE,112,0,0,79.8,0.0,,,0.0,0,0,n/a,2020-02-19T23:24:08Z
2020-02-20 00:27:08,-2.2,0.2,1020.1,ESE,112,0,0,80.1,0.0,,,0.0,0,0,n/a,2020-02-19T23:27:08Z
2020-02-20 00:33:07,-2.1,0.1,1020.1,ESE,112,0,0,79.9,0.0,,,0.0,2,0,n/a,2020-02-19T23:33:07Z
2020-02-20 00:39:08,-2,0.1,1020.1,North,0,0,0,80.3,0.0,,,0.0,2,0,n/a,2020-02-19T23:39:08Z
2020-02-20 00:42:06,-2.3,0.2,1020.1,East,90,0,0,80.6,0.0,,,0.0,2,0,n/a,2020-02-19T23:42:06Z
2020-02-20 00:48:07,-2.4,0.1,1020.1,ENE,67,0,0,80.6,0.0,,,0.0,2,0,n/a,2020-02-19T23:48:07Z
2020-02-20 00:54:08,-2.5,-0.1,1020.1,ENE,67,0,0,80.4,0.0,,,0.0,2,0,n/a,2020-02-19T23:54:08Z
2020-02-20 00:57:07,-2.5,-0.1,1020.1,East,90,0,0,80.7,0.0,,,0.0,2,0,n/a,2020-02-19T23:57:07Z
2020-02-20 01:03:07,-2.5,0,1020.1,East,90,0,0,81.3,0.0,,,0.0,0,0,n/a,2020-02-20T00:03:07Z
2020-02-20 01:09:08,-2.9,-0.2,1020.1,ESE,112,0,0,81.1,0.0,,,0.0,2,0,n/a,2020-02-20T00:09:08Z
2020-02-20 01:12:08,-2.9,-0.2,1020.1,ESE,112,0,0,81,0.0,,,0.0,0,0,n/a,2020-02-20T00:12:08Z
2020-02-20 01:18:07,-2.8,-0.3,1020.1,ESE,112,0,0,81.1,0.0,,,0.0,2,0,n/a,2020-02-20T00:18:07Z
2020-02-20 01:24:08,-2.5,-0.3,1020.1,ESE,112,0,0,81.6,0.0,,,0.0,0,0,n/a,2020-02-20T00:24:08Z
2020-02-20 01:27:07,-2.4,-0.1,1020.1,ESE,112,0,0,82.5,0.0,,,0.0,0,0,n/a,2020-02-20T00:27:07Z
2020-02-20 01:33:07,-2.5,-0.1,1020.1,East,90,0,0,82.3,0.0,,,0.0,0,0,n/a,2020-02-20T00:33:07Z
2020-02-20 01:39:07,-2.4,-0.2,1020.1,East,90,0,0,82.5,0.0,,,0.0,2,0,n/a,2020-02-20T00:39:07Z
2020-02-20 01:42:08,-2.4,-0.1,1019.8,ENE,67,0,0,82.7,0.0,,,0.0,2,0,n/a,2020-02-20T00:42:08Z
2020-02-20 01:48:08,-2.7,-0.1,1019.8,ENE,67,0,0,82.3,0.0,,,0.0,2,0,n/a,2020-02-20T00:48:08Z
2020-02-20 01:54:07,-2.8,-0.2,1020.1,ENE,67,0,0,82.4,0.0,,,0.0,2,0,n/a,2020-02-20T00:54:07Z
2020-02-20 01:57:07,-2.9,-0.3,1019.8,East,90,0,0,82.3,0.0,,,0.0,0,0,n/a,2020-02-20T00:57:07Z
2020-02-20 02:03:08,-3.2,-0.3,1020.1,East,90,0,0,82.5,0.0,,,0.0,2,0,n/a,2020-02-20T01:03:08Z
2020-02-20 02:09:08,-2.9,-0.4,1019.8,East,90,0,0,82.4,0.0,,,0.0,2,0,n/a,2020-02-20T01:09:08Z
2020-02-20 02:12:07,-3,-0.4,1019.8,ENE,67,0,0,83,0.0,,,0.0,2,0,n/a,2020-02-20T01:12:07Z
2020-02-20 02:18:07,-2.6,-0.4,1019.8,NNW,337,0,0,82.8,0.0,,,0.0,0,0,n/a,2020-02-20T01:18:07Z
2020-02-20 02:24:08,-2.4,-0.3,1019.8,NNW,337,0,0,83.4,0.0,,,0.0,0,0,n/a,2020-02-20T01:24:08Z
2020-02-20 02:27:07,-2.5,-0.3,1019.8,NNW,337,0,0,83.4,0.0,,,0.0,2,0,n/a,2020-02-20T01:27:07Z
2020-02-20 02:33:08,-2.4,-0.4,1019.6,NNW,337,0,0,83.4,0.0,,,0.0,0,0,n/a,2020-02-20T01:33:08Z
2020-02-20 02:39:07,-2.2,-0.2,1019.6,NE,45,0,0,83.7,0.0,,,0.0,2,0,n/a,2020-02-20T01:39:07Z
2020-02-20 02:42:08,-2.1,-0.1,1019.6,NE,45,0,0,84.2,0.0,,,0.0,0,0,n/a,2020-02-20T01:42:08Z
2020-02-20 02:48:07,-1.9,-0.1,1019.6,NE,45,0,0,84.3,0.0,,,0.0,2,0,n/a,2020-02-20T01:48:07Z
2020-02-20 02:54:07,-1.6,0,1019.6,ESE,112,0,0,84.8,0.0,,,0.0,2,0,n/a,2020-02-20T01:54:07Z
2020-02-20 02:57:08,-1.6,0.1,1019.6,ESE,112,0,0,84.7,0.0,,,0.0,0,0,n/a,2020-02-20T01:57:08Z
2020-02-20 03:03:08,-1.5,0.1,1019.6,ESE,112,0,0,84.9,0.0,,,0.0,2,0,n/a,2020-02-20T02:03:08Z
2020-02-20 03:09:07,-1.5,0.2,1019.4,East,90,0,0,85.2,0.0,,,0.0,2,0,n/a,2020-02-20T02:09:07Z
2020-02-20 03:12:06,-1.3,0.2,1019.1,East,90,0,0,85.1,0.0,,,0.0,2,0,n/a,2020-02-20T02:12:06Z
2020-02-20 03:18:07,-1.3,0.3,1019.1,ESE,112,0,0,85.5,0.0,,,0.0,0,0,n/a,2020-02-20T02:18:07Z
2020-02-20 03:24:08,-0.8,0.6,1019.1,North,0,0,0,86.1,0.0,,,0.0,0,0,n/a,2020-02-20T02:24:08Z
2020-02-20 03:27:08,-0.9,0.5,1019.1,NW,315,0,0,85.2,0.0,,,0.0,0,0,n/a,2020-02-20T02:27:08Z
2020-02-20 03:33:07,-0.7,0.6,1019.1,NW,315,0,0,85.8,0.0,,,0.0,2,0,n/a,2020-02-20T02:33:07Z
2020-02-20 03:39:07,-0.5,0.8,1019.1,SE,135,0,0,86.5,0.0,,,0.0,2,0,n/a,2020-02-20T02:39:07Z
2020-02-20 03:42:07,-0.4,0.8,1019.1,SE,135,0,0,86.5,0.0,,,0.0,2,0,n/a,2020-02-20T02:42:07Z
2020-02-20 03:48:03,-0.5,0.8,1019.1,North,0,0,0,86.2,0.0,,,0.0,2,0,n/a,2020-02-20T02:48:03Z
2020-02-20 03:54:08,-0.5,0.8,1019.1,SE,135,0,0,86.2,0.0,,,0.0,0,0,n/a,2020-02-20T02:54:08Z
2020-02-20 03:57:08,-0.6,0.9,1018.9,SE,135,0,0,86.5,0.0,,,0.0,2,0,n/a,2020-02-20T02:57:08Z
2020-02-20 04:03:08,-0.5,0.9,1018.9,SE,135,0,0,86.3,0.0,,,0.0,2,0,n/a,2020-02-20T03:03:08Z
2020-02-20 04:09:08,-0.5,1,1018.7,SE,135,0,0,86.4,0.0,,,0.0,2,0,n/a,2020-02-20T03:09:08Z
2020-02-20 04:12:03,-0.6,1,1018.7,SE,135,0,0,86.5,0.0,,,0.0,0,0,n/a,2020-02-20T03:12:03Z
2020-02-20 04:18:08,-0.6,1,1018.9,SE,135,0,0,86.3,0.0,,,0.0,2,0,n/a,2020-02-20T03:18:08Z
2020-02-20 04:24:07,-0.4,1,1018.9,East,90,0,0,86.3,0.0,,,0.0,2,0,n/a,2020-02-20T03:24:07Z
2020-02-20 04:27:07,-0.4,1.1,1018.9,East,90,0,0,86.6,0.0,,,0.0,0,0,n/a,2020-02-20T03:27:07Z
2020-02-20 04:33:08,-0.3,1.1,1018.9,East,90,0,0,86.9,0.0,,,0.0,2,0,n/a,2020-02-20T03:33:08Z
2020-02-20 04:39:07,-0.3,1.3,1018.9,NE,45,0,0,87.8,0.0,,,0.0,2,0,n/a,2020-02-20T03:39:07Z
2020-02-20 04:42:06,-0.3,1.3,1018.9,NNE,22,0,0,87.6,0.0,,,0.0,2,0,n/a,2020-02-20T03:42:06Z
2020-02-20 04:48:07,-0.3,1.4,1018.9,NNE,22,0,0,87.8,0.0,,,0.0,2,0,n/a,2020-02-20T03:48:07Z
2020-02-20 04:54:08,-0.3,1.3,1018.9,NNE,22,0,0,87.5,0.0,,,0.0,2,0,n/a,2020-02-20T03:54:08Z
2020-02-20 04:57:07,-0.3,1.4,1018.9,North,0,0,0,87.4,0.0,,,0.0,0,0,n/a,2020-02-20T03:57:07Z
2020-02-20 05:03:07,-0.2,1.4,1018.9,North,0,0,0,87.6,0.0,,,0.0,2,0,n/a,2020-02-20T04:03:07Z
2020-02-20 05:09:08,-0.2,1.4,1018.7,North,0,0,0,87.5,0.0,,,0.0,2,0,n/a,2020-02-20T04:09:08Z
2020-02-20 05:12:07,-0.3,1.4,1018.9,North,0,0,0,87.4,0.0,,,0.0,2,0,n/a,2020-02-20T04:12:07Z
2020-02-20 05:18:08,-0.2,1.4,1018.9,North,0,0,0,87.6,0.0,,,0.0,2,0,n/a,2020-02-20T04:18:08Z
2020-02-20 05:24:07,-0.2,1.5,1018.9,North,0,0,0,87.7,0.0,,,0.0,2,0,n/a,2020-02-20T04:24:07Z
2020-02-20 05:33:08,-0.1,1.6,1018.9,East,90,0,0,88.2,0.0,,,0.0,2,0,n/a,2020-02-20T04:33:08Z
2020-02-20 05:39:08,-0.2,1.7,1018.9,East,90,0,0,88.5,0.0,,,0.0,2,0,n/a,2020-02-20T04:39:08Z
2020-02-20 05:42:06,-0.2,1.8,1018.7,ESE,112,0,0,89,0.0,,,0.0,0,0,n/a,2020-02-20T04:42:06Z
2020-02-20 05:48:08,-0.1,1.7,1018.7,North,0,0,0,88.6,0.0,,,0.0,2,0,n/a,2020-02-20T04:48:08Z
2020-02-20 05:54:08,-0.1,1.8,1018.7,ESE,112,0,0,88.7,0.0,,,0.0,2,0,n/a,2020-02-20T04:54:08Z
2020-02-20 05:57:07,-0.1,1.7,1018.7,ESE,112,0,0,88.6,0.0,,,0.0,2,0,n/a,2020-02-20T04:57:07Z
2020-02-20 06:03:08,-0.1,1.8,1018.7,ESE,112,0,0,88.7,0.0,,,0.0,2,0,n/a,2020-02-20T05:03:08Z
2020-02-20 06:09:07,-0.1,1.9,1018.7,ESE,112,0,0,88.9,0.0,,,0.0,2,0,n/a,2020-02-20T05:09:07Z
2020-02-20 06:12:08,-0.1,1.9,1018.7,ESE,112,0,0,89.5,0.0,,,0.0,2,0,n/a,2020-02-20T05:12:08Z